Time;durP1;ratioP1;P1;durP2;ratioP2;P2;SDS_P1;SDS_P2;PMS_P1;PMS_P2;Temp;Humidity;BMP_temperature;BMP_pressure;BME280_temperature;BME280_humidity;BME280_pressure;Samples;Min_cycle;Max_cycle;Signal;HPM_P1;HPM_P2
2022/04/24 00:00:53;;;;;;;13.20;5.75;;;;;;;;;;5034424;28;20061;-80
2022/04/24 00:03:20;;;;;;;8.27;5.35;;;;;;;;;;5036440;28;20038;-80
2022/04/24 00:05:47;;;;;;;9.90;5.68;;;;;;;;;;5035880;28;20090;-81
2022/04/24 00:08:14;;;;;;;8.75;6.18;;;;;;;;;;5037736;28;20116;-81
2022/04/24 00:10:40;;;;;;;7.90;5.68;;;;;;;;;;5037335;28;20544;-80
2022/04/24 00:13:07;;;;;;;8.60;5.63;;;;;;;;;;5031539;28;20050;-82
2022/04/24 00:15:33;;;;;;;11.35;6.55;;;;;;;;;;5038422;28;20573;-80
2022/04/24 00:18:00;;;;;;;8.80;5.95;;;;;;;;;;5038627;28;20468;-80
2022/04/24 00:20:27;;;;;;;9.45;6.07;;;;;;;;;;5037879;28;20066;-81
2022/04/24 00:22:53;;;;;;;9.60;5.80;;;;;;;;;;5036745;28;20065;-80
2022/04/24 00:25:19;;;;;;;9.65;6.55;;;;;;;;;;5036399;28;20069;-80
2022/04/24 00:27:46;;;;;;;10.52;6.18;;;;;;;;;;5047055;28;20138;-81
2022/04/24 00:30:13;;;;;;;9.65;6.05;;;;;;;;;;5039590;28;20054;-80
2022/04/24 00:32:39;;;;;;;9.65;6.60;;;;;;;;;;5036128;28;20058;-79
2022/04/24 00:35:06;;;;;;;9.55;5.93;;;;;;;;;;5031321;28;20061;-80
2022/04/24 00:37:33;;;;;;;9.48;6.18;;;;;;;;;;5030956;28;20116;-80
2022/04/24 00:39:59;;;;;;;8.90;5.93;;;;;;;;;;5032848;28;20159;-79
2022/04/24 00:42:25;;;;;;;9.25;6.25;;;;;;;;;;5036655;28;20038;-80
2022/04/24 00:44:52;;;;;;;11.75;6.20;;;;;;;;;;5034923;28;20068;-80
2022/04/24 00:47:20;;;;;;;9.68;6.55;;;;;;;;;;5037868;28;20076;-80
2022/04/24 00:49:46;;;;;;;9.77;6.57;;;;;;;;;;5037089;28;20100;-79
2022/04/24 00:52:13;;;;;;;11.25;6.75;;;;;;;;;;5038314;28;20081;-80
2022/04/24 00:54:39;;;;;;;17.77;6.53;;;;;;;;;;5030045;28;20050;-79
2022/04/24 00:57:07;;;;;;;13.18;7.25;;;;;;;;;;5023025;28;20136;-80
2022/04/24 00:59:34;;;;;;;11.30;6.50;;;;;;;;;;5038433;28;20109;-80
2022/04/24 01:02:04;;;;;;;11.05;7.50;;;;;;;;;;5038779;28;20089;-79
2022/04/24 01:04:33;;;;;;;10.35;6.90;;;;;;;;;;5031099;28;20054;-79
2022/04/24 01:06:59;;;;;;;12.07;7.20;;;;;;;;;;5048468;28;20062;-79
2022/04/24 01:09:27;;;;;;;10.48;7.32;;;;;;;;;;5033619;28;20101;-79
2022/04/24 01:11:54;;;;;;;11.02;7.65;;;;;;;;;;5036457;28;20148;-80
2022/04/24 01:14:22;;;;;;;14.55;7.95;;;;;;;;;;5029543;28;20056;-80
2022/04/24 01:16:49;;;;;;;11.77;7.75;;;;;;;;;;5033083;28;20059;-80
2022/04/24 01:19:16;;;;;;;11.18;7.28;;;;;;;;;;5037063;28;20042;-79
2022/04/24 01:21:44;;;;;;;13.48;7.63;;;;;;;;;;5037766;28;20124;-79
2022/04/24 01:24:11;;;;;;;11.80;8.07;;;;;;;;;;5028709;28;20924;-80
2022/04/24 01:26:38;;;;;;;13.40;8.40;;;;;;;;;;5064688;28;20090;-80
2022/04/24 01:29:04;;;;;;;14.23;8.80;;;;;;;;;;5032478;28;20062;-79
2022/04/24 01:31:31;;;;;;;13.73;7.80;;;;;;;;;;5023011;28;20047;-80
2022/04/24 01:33:58;;;;;;;12.63;7.60;;;;;;;;;;5024961;28;20064;-80
2022/04/24 01:36:24;;;;;;;15.88;8.32;;;;;;;;;;5037836;28;20581;-80
2022/04/24 01:38:50;;;;;;;12.13;8.65;;;;;;;;;;5034246;28;20058;-80
2022/04/24 01:41:17;;;;;;;12.35;8.52;;;;;;;;;;5034335;28;20613;-80
2022/04/24 01:43:44;;;;;;;12.20;8.05;;;;;;;;;;5036411;28;20928;-81
2022/04/24 01:46:11;;;;;;;13.90;8.88;;;;;;;;;;5034835;28;20096;-79
2022/04/24 01:48:37;;;;;;;14.18;8.77;;;;;;;;;;5028193;28;20054;-80
2022/04/24 01:51:05;;;;;;;13.15;8.20;;;;;;;;;;5034954;28;20069;-80
2022/04/24 01:53:32;;;;;;;13.95;8.57;;;;;;;;;;5034055;28;20113;-79
2022/04/24 01:55:59;;;;;;;12.55;7.95;;;;;;;;;;5017265;28;20069;-79
2022/04/24 01:58:26;;;;;;;15.52;9.43;;;;;;;;;;5029915;28;20050;-79
2022/04/24 02:00:52;;;;;;;13.70;8.63;;;;;;;;;;5034953;28;20150;-80
2022/04/24 02:03:20;;;;;;;12.88;8.50;;;;;;;;;;5033897;28;20072;-79
2022/04/24 02:05:47;;;;;;;11.73;8.00;;;;;;;;;;5029174;28;20050;-79
2022/04/24 02:08:14;;;;;;;14.80;8.82;;;;;;;;;;5034293;28;20038;-79
2022/04/24 02:10:41;;;;;;;12.15;8.15;;;;;;;;;;5029850;28;20037;-79
2022/04/24 02:13:08;;;;;;;12.88;8.38;;;;;;;;;;5034427;28;20122;-80
2022/04/24 02:15:35;;;;;;;14.48;7.97;;;;;;;;;;5033431;28;20050;-79
2022/04/24 02:18:02;;;;;;;15.45;9.00;;;;;;;;;;5034333;28;20464;-80
2022/04/24 02:20:31;;;;;;;32.13;8.77;;;;;;;;;;5035506;28;20058;-80
2022/04/24 02:22:58;;;;;;;13.25;8.15;;;;;;;;;;5034759;28;20595;-79
2022/04/24 02:25:25;;;;;;;13.50;8.75;;;;;;;;;;5034355;28;20128;-78
2022/04/24 02:27:53;;;;;;;13.35;8.57;;;;;;;;;;5030609;28;20141;-79
2022/04/24 02:30:20;;;;;;;12.20;8.30;;;;;;;;;;5047093;28;20589;-78
2022/04/24 02:32:46;;;;;;;14.52;8.02;;;;;;;;;;5035156;28;20069;-79
2022/04/24 02:35:13;;;;;;;12.07;7.85;;;;;;;;;;5034756;28;20105;-78
2022/04/24 02:37:39;;;;;;;12.55;8.15;;;;;;;;;;5034046;28;20112;-80
2022/04/24 02:40:14;;;;;;;12.60;8.23;;;;;;;;;;5035526;28;20317;-79
2022/04/24 02:42:40;;;;;;;13.60;8.27;;;;;;;;;;5034972;28;20098;-80
2022/04/24 02:45:07;;;;;;;12.48;7.80;;;;;;;;;;5033592;28;20073;-80
2022/04/24 02:47:34;;;;;;;11.50;7.72;;;;;;;;;;5023231;28;20077;-80
2022/04/24 02:50:01;;;;;;;13.82;7.95;;;;;;;;;;5033611;28;20116;-78
2022/04/24 02:52:27;;;;;;;12.82;8.20;;;;;;;;;;5033656;28;20054;-79
2022/04/24 02:54:56;;;;;;;14.85;7.93;;;;;;;;;;5026401;28;20050;-79
2022/04/24 02:57:28;;;;;;;14.50;8.23;;;;;;;;;;5044776;28;20050;-80
2022/04/24 02:59:55;;;;;;;15.63;8.40;;;;;;;;;;5034426;28;20049;-80
2022/04/24 03:02:22;;;;;;;13.73;7.97;;;;;;;;;;5036954;28;20086;-80
2022/04/24 03:04:48;;;;;;;16.30;8.35;;;;;;;;;;5035676;28;20145;-79
2022/04/24 03:07:15;;;;;;;13.20;8.23;;;;;;;;;;5034782;28;20081;-79
2022/04/24 03:09:42;;;;;;;12.15;7.88;;;;;;;;;;5027839;28;20054;-80
2022/04/24 03:12:09;;;;;;;13.57;8.75;;;;;;;;;;5042946;28;21042;-79
2022/04/24 03:14:35;;;;;;;13.48;8.40;;;;;;;;;;5033352;28;20086;-79
2022/04/24 03:17:02;;;;;;;13.98;7.40;;;;;;;;;;5036595;28;20062;-79
2022/04/24 03:19:28;;;;;;;12.07;7.57;;;;;;;;;;5034722;28;20870;-80
2022/04/24 03:21:55;;;;;;;13.82;8.15;;;;;;;;;;5035174;28;20053;-79
2022/04/24 03:24:21;;;;;;;12.95;7.55;;;;;;;;;;5031056;28;20050;-79
2022/04/24 03:26:48;;;;;;;12.25;7.43;;;;;;;;;;5030597;28;20529;-79
2022/04/24 03:29:14;;;;;;;12.07;7.50;;;;;;;;;;5027554;28;20101;-79
2022/04/24 03:31:40;;;;;;;11.50;7.30;;;;;;;;;;5028375;28;20077;-80
2022/04/24 03:34:07;;;;;;;15.07;7.47;;;;;;;;;;5031316;28;20058;-80
2022/04/24 03:36:33;;;;;;;13.02;7.43;;;;;;;;;;5026970;28;20085;-81
2022/04/24 03:39:00;;;;;;;14.30;7.10;;;;;;;;;;5032069;28;20136;-80
2022/04/24 03:41:26;;;;;;;10.45;7.15;;;;;;;;;;5032338;28;20124;-79
2022/04/24 03:43:52;;;;;;;12.75;7.97;;;;;;;;;;5033146;28;20042;-80
2022/04/24 03:46:19;;;;;;;11.65;7.00;;;;;;;;;;5031068;28;20061;-79
2022/04/24 03:48:46;;;;;;;10.80;6.65;;;;;;;;;;5032156;28;20081;-79
2022/04/24 03:51:12;;;;;;;11.32;6.70;;;;;;;;;;5032255;28;20058;-80
2022/04/24 03:53:38;;;;;;;14.80;7.57;;;;;;;;;;5034716;28;20152;-79
2022/04/24 03:56:05;;;;;;;12.48;7.90;;;;;;;;;;5031440;28;20085;-80
2022/04/24 03:58:31;;;;;;;11.82;7.07;;;;;;;;;;5030566;28;20078;-79
2022/04/24 04:00:57;;;;;;;11.18;7.10;;;;;;;;;;5027181;28;20596;-79
2022/04/24 04:03:24;;;;;;;11.63;6.35;;;;;;;;;;5024780;28;20058;-80
2022/04/24 04:05:51;;;;;;;12.55;7.10;;;;;;;;;;5025886;28;20134;-79
2022/04/24 04:08:17;;;;;;;11.68;6.80;;;;;;;;;;5026588;28;20113;-79
2022/04/24 04:10:44;;;;;;;17.75;7.22;;;;;;;;;;5029855;28;20121;-79
2022/04/24 04:13:10;;;;;;;12.82;7.05;;;;;;;;;;5025298;28;20058;-79
2022/04/24 04:15:37;;;;;;;11.13;6.80;;;;;;;;;;5031129;28;20053;-80
2022/04/24 04:18:03;;;;;;;12.00;6.90;;;;;;;;;;5032295;28;20054;-80
2022/04/24 04:20:30;;;;;;;9.75;6.30;;;;;;;;;;5025357;28;20800;-79
2022/04/24 04:22:56;;;;;;;12.50;6.93;;;;;;;;;;5023581;28;20146;-79
2022/04/24 04:25:24;;;;;;;13.65;6.43;;;;;;;;;;5033128;28;20054;-80
2022/04/24 04:27:52;;;;;;;10.35;6.30;;;;;;;;;;5023693;28;20070;-79
2022/04/24 04:30:18;;;;;;;10.88;6.57;;;;;;;;;;5048466;28;20147;-80
2022/04/24 04:32:45;;;;;;;11.85;6.45;;;;;;;;;;5030482;28;20084;-79
2022/04/24 04:35:12;;;;;;;14.70;6.40;;;;;;;;;;5030217;28;20083;-79
2022/04/24 04:37:42;;;;;;;10.45;6.60;;;;;;;;;;5029932;28;20073;-79
2022/04/24 04:40:10;;;;;;;17.65;6.55;;;;;;;;;;5023310;28;20121;-80
2022/04/24 04:42:38;;;;;;;9.20;5.80;;;;;;;;;;5028632;28;20054;-79
2022/04/24 04:45:06;;;;;;;11.75;6.65;;;;;;;;;;5044543;28;20488;-79
2022/04/24 04:47:32;;;;;;;12.40;6.15;;;;;;;;;;5029593;28;20559;-79
2022/04/24 04:49:59;;;;;;;12.10;6.30;;;;;;;;;;5031505;28;20058;-79
2022/04/24 04:52:32;;;;;;;12.15;6.13;;;;;;;;;;5016776;28;20065;-79
2022/04/24 04:54:59;;;;;;;11.20;6.70;;;;;;;;;;5031834;28;20054;-80
2022/04/24 04:57:25;;;;;;;12.57;5.97;;;;;;;;;;5066486;28;20109;-80
2022/04/24 04:59:52;;;;;;;10.95;6.13;;;;;;;;;;5034747;28;20042;-79
2022/04/24 05:02:18;;;;;;;13.18;6.50;;;;;;;;;;5036541;28;20049;-79
2022/04/24 05:04:45;;;;;;;10.43;6.00;;;;;;;;;;5034811;28;20085;-80
2022/04/24 05:07:11;;;;;;;10.50;5.80;;;;;;;;;;5029611;28;20058;-80
2022/04/24 05:09:38;;;;;;;9.20;5.63;;;;;;;;;;5026995;28;20046;-80
2022/04/24 05:12:05;;;;;;;11.88;5.60;;;;;;;;;;5034140;28;20081;-79
2022/04/24 05:14:32;;;;;;;11.27;5.97;;;;;;;;;;5023107;28;20193;-79
2022/04/24 05:16:58;;;;;;;14.85;5.80;;;;;;;;;;5034887;28;20200;-80
2022/04/24 05:19:25;;;;;;;10.45;5.38;;;;;;;;;;5031760;28;20780;-80
2022/04/24 05:21:52;;;;;;;9.98;5.38;;;;;;;;;;5038091;28;20165;-80
2022/04/24 05:24:18;;;;;;;10.90;5.45;;;;;;;;;;5037833;28;20046;-81
2022/04/24 05:26:45;;;;;;;9.75;5.40;;;;;;;;;;5044025;28;20038;-82
2022/04/24 05:29:12;;;;;;;8.90;5.47;;;;;;;;;;5035307;28;20070;-80
2022/04/24 05:31:39;;;;;;;9.07;5.50;;;;;;;;;;5040939;28;20057;-81
2022/04/24 05:34:05;;;;;;;8.45;5.43;;;;;;;;;;5033432;28;20065;-81
2022/04/24 05:36:32;;;;;;;11.32;5.55;;;;;;;;;;5037909;28;20053;-81
2022/04/24 05:38:58;;;;;;;9.38;5.78;;;;;;;;;;5041272;28;20088;-81
2022/04/24 05:41:24;;;;;;;9.45;5.80;;;;;;;;;;5045360;28;20058;-79
2022/04/24 05:43:51;;;;;;;9.93;5.60;;;;;;;;;;5036227;28;20053;-81
2022/04/24 05:46:17;;;;;;;12.48;5.57;;;;;;;;;;5037278;28;20144;-80
2022/04/24 05:48:44;;;;;;;11.07;5.60;;;;;;;;;;5037628;28;20042;-82
2022/04/24 05:51:10;;;;;;;8.75;5.40;;;;;;;;;;5041014;28;20060;-80
2022/04/24 05:53:37;;;;;;;10.65;5.65;;;;;;;;;;5030461;28;20103;-80
2022/04/24 05:56:04;;;;;;;8.75;5.43;;;;;;;;;;5037322;28;20781;-80
2022/04/24 05:58:30;;;;;;;9.18;5.40;;;;;;;;;;5030010;28;20058;-80
2022/04/24 06:00:57;;;;;;;15.65;5.60;;;;;;;;;;5037457;28;20058;-80
2022/04/24 06:03:23;;;;;;;8.30;5.20;;;;;;;;;;5037802;28;20057;-80
2022/04/24 06:05:50;;;;;;;12.63;5.47;;;;;;;;;;5031733;28;20049;-79
2022/04/24 06:08:16;;;;;;;11.88;5.47;;;;;;;;;;5034378;28;20061;-80
2022/04/24 06:10:43;;;;;;;8.68;5.13;;;;;;;;;;5034346;28;20058;-81
2022/04/24 06:13:09;;;;;;;8.25;5.00;;;;;;;;;;5067163;28;20061;-80
2022/04/24 06:15:38;;;;;;;8.90;5.18;;;;;;;;;;5065956;28;20065;-80
2022/04/24 06:18:04;;;;;;;9.45;5.32;;;;;;;;;;5027469;28;20583;-80
2022/04/24 06:20:31;;;;;;;9.98;5.43;;;;;;;;;;5029201;28;20078;-80
2022/04/24 06:22:58;;;;;;;10.15;5.20;;;;;;;;;;5050455;28;20887;-80
2022/04/24 06:25:31;;;;;;;9.90;5.00;;;;;;;;;;5038096;28;20045;-80
2022/04/24 06:27:58;;;;;;;10.02;5.40;;;;;;;;;;5037414;28;20141;-80
2022/04/24 06:30:26;;;;;;;8.27;5.47;;;;;;;;;;5041240;28;20054;-80
2022/04/24 06:32:53;;;;;;;8.32;5.35;;;;;;;;;;5042850;28;20081;-81
2022/04/24 06:35:20;;;;;;;7.57;4.95;;;;;;;;;;5047049;28;20045;-79
2022/04/24 06:37:47;;;;;;;9.35;5.13;;;;;;;;;;5036136;28;20092;-82
2022/04/24 06:40:15;;;;;;;12.65;5.00;;;;;;;;;;5035743;28;20058;-80
2022/04/24 06:42:57;;;;;;;9.25;5.32;;;;;;;;;;5037405;28;20109;-80
2022/04/24 06:45:25;;;;;;;11.32;5.22;;;;;;;;;;5052106;28;20058;-81
2022/04/24 06:47:52;;;;;;;7.60;5.18;;;;;;;;;;5038542;28;20049;-80
2022/04/24 06:50:18;;;;;;;13.57;5.60;;;;;;;;;;5034447;28;20105;-80
2022/04/24 06:52:54;;;;;;;8.95;5.22;;;;;;;;;;5025651;28;20081;-81
2022/04/24 06:55:20;;;;;;;8.93;4.80;;;;;;;;;;5033816;28;20982;-81
2022/04/24 06:57:46;;;;;;;8.45;4.85;;;;;;;;;;5051921;28;20926;-80
2022/04/24 07:00:13;;;;;;;9.57;5.13;;;;;;;;;;5036299;28;20096;-80
2022/04/24 07:02:40;;;;;;;10.27;4.95;;;;;;;;;;5040496;28;20080;-80
2022/04/24 07:05:06;;;;;;;9.25;4.85;;;;;;;;;;5037706;28;20061;-80
2022/04/24 07:07:33;;;;;;;7.38;5.00;;;;;;;;;;5040891;28;20042;-80
2022/04/24 07:09:59;;;;;;;8.27;5.15;;;;;;;;;;5040174;28;20100;-80
2022/04/24 07:12:26;;;;;;;7.75;5.05;;;;;;;;;;5025280;28;20077;-80
2022/04/24 07:14:52;;;;;;;10.50;4.70;;;;;;;;;;5035364;28;20050;-81
2022/04/24 07:17:19;;;;;;;8.65;4.68;;;;;;;;;;5038944;28;20092;-80
2022/04/24 07:19:45;;;;;;;9.93;5.10;;;;;;;;;;5032268;28;20591;-78
2022/04/24 07:22:11;;;;;;;14.20;5.40;;;;;;;;;;5030581;28;20054;-80
2022/04/24 07:24:40;;;;;;;9.25;5.18;;;;;;;;;;5036320;28;20054;-80
2022/04/24 07:27:07;;;;;;;9.07;4.75;;;;;;;;;;5035768;28;21078;-79
2022/04/24 07:29:33;;;;;;;8.93;5.10;;;;;;;;;;5028366;28;20058;-80
2022/04/24 07:32:00;;;;;;;8.05;4.95;;;;;;;;;;5029077;28;20835;-80
2022/04/24 07:34:26;;;;;;;10.70;5.45;;;;;;;;;;5029355;28;21052;-80
2022/04/24 07:36:53;;;;;;;8.57;4.68;;;;;;;;;;5026733;28;20084;-81
2022/04/24 07:39:19;;;;;;;10.27;4.72;;;;;;;;;;5028586;28;20038;-79
2022/04/24 07:41:46;;;;;;;9.43;5.05;;;;;;;;;;5025223;28;20049;-81
2022/04/24 07:44:12;;;;;;;7.45;5.05;;;;;;;;;;5024966;28;20144;-80
2022/04/24 07:46:41;;;;;;;9.93;5.32;;;;;;;;;;5031171;28;20428;-79
2022/04/24 07:49:08;;;;;;;7.15;4.90;;;;;;;;;;5031385;28;20106;-80
2022/04/24 07:51:34;;;;;;;7.40;5.03;;;;;;;;;;5027078;28;20151;-79
2022/04/24 07:54:01;;;;;;;8.27;4.90;;;;;;;;;;5040548;28;20046;-78
2022/04/24 07:56:27;;;;;;;7.53;5.10;;;;;;;;;;5023058;28;20054;-80
2022/04/24 07:58:54;;;;;;;6.90;4.72;;;;;;;;;;5041122;28;20069;-80
2022/04/24 08:01:21;;;;;;;8.43;4.93;;;;;;;;;;5026906;28;20078;-78
2022/04/24 08:03:51;;;;;;;8.75;5.40;;;;;;;;;;5030061;28;20081;-79
2022/04/24 08:06:18;;;;;;;8.85;5.13;;;;;;;;;;5027009;28;20058;-79
2022/04/24 08:08:45;;;;;;;9.30;4.75;;;;;;;;;;5024581;28;20141;-80
2022/04/24 08:11:11;;;;;;;7.15;4.65;;;;;;;;;;5024419;28;20080;-82
2022/04/24 08:13:37;;;;;;;8.90;5.43;;;;;;;;;;5022625;28;20116;-82
2022/04/24 08:16:04;;;;;;;7.60;4.97;;;;;;;;;;5025225;28;20066;-78
2022/04/24 08:18:31;;;;;;;8.20;4.80;;;;;;;;;;5022365;28;20421;-78
2022/04/24 08:20:57;;;;;;;6.93;4.88;;;;;;;;;;5018793;28;20097;-78
2022/04/24 08:23:25;;;;;;;8.32;5.18;;;;;;;;;;5026238;28;20078;-81
2022/04/24 08:25:52;;;;;;;7.38;5.10;;;;;;;;;;5027332;28;20052;-79
2022/04/24 08:28:20;;;;;;;8.63;5.13;;;;;;;;;;5022183;28;20919;-80
2022/04/24 08:30:48;;;;;;;11.35;5.50;;;;;;;;;;5029126;28;21010;-80
2022/04/24 08:33:17;;;;;;;7.70;4.70;;;;;;;;;;5029330;28;20038;-81
2022/04/24 08:35:45;;;;;;;7.47;4.93;;;;;;;;;;5024644;28;20173;-80
2022/04/24 08:38:12;;;;;;;9.23;5.15;;;;;;;;;;5027671;28;20116;-79
2022/04/24 08:40:41;;;;;;;7.85;5.10;;;;;;;;;;5031834;28;20112;-79
2022/04/24 08:43:08;;;;;;;14.60;5.20;;;;;;;;;;5026511;28;20057;-80
2022/04/24 08:45:39;;;;;;;8.60;5.13;;;;;;;;;;5030196;28;20088;-80
2022/04/24 08:48:06;;;;;;;7.38;4.57;;;;;;;;;;5028680;28;20293;-80
2022/04/24 08:50:33;;;;;;;10.68;5.20;;;;;;;;;;5030723;28;20215;-81
2022/04/24 08:53:00;;;;;;;9.35;5.07;;;;;;;;;;5034463;28;20038;-81
2022/04/24 08:55:27;;;;;;;10.15;5.32;;;;;;;;;;5029656;28;20058;-81
2022/04/24 08:57:54;;;;;;;7.20;4.65;;;;;;;;;;5029493;28;20057;-79
2022/04/24 09:00:20;;;;;;;8.85;5.10;;;;;;;;;;5031026;28;20042;-80
2022/04/24 09:02:49;;;;;;;6.22;4.57;;;;;;;;;;5030486;28;20054;-80
2022/04/24 09:05:16;;;;;;;9.30;4.70;;;;;;;;;;5046001;28;20065;-80
2022/04/24 09:07:43;;;;;;;9.38;4.97;;;;;;;;;;5026393;28;20816;-79
2022/04/24 09:10:30;;;;;;;7.80;5.00;;;;;;;;;;5021989;28;20441;-79
2022/04/24 09:12:59;;;;;;;9.73;5.20;;;;;;;;;;5026633;28;20054;-80
2022/04/24 09:15:27;;;;;;;7.40;5.18;;;;;;;;;;5024145;28;20489;-80
2022/04/24 09:18:00;;;;;;;7.97;4.90;;;;;;;;;;5055523;28;20057;-79
2022/04/24 09:20:40;;;;;;;6.70;4.90;;;;;;;;;;5029191;28;20057;-79
2022/04/24 09:23:06;;;;;;;8.27;4.57;;;;;;;;;;5032648;28;20105;-79
2022/04/24 09:25:39;;;;;;;10.13;4.75;;;;;;;;;;5031875;28;20127;-80
2022/04/24 09:28:07;;;;;;;6.80;4.38;;;;;;;;;;5031693;28;20077;-79
2022/04/24 09:30:36;;;;;;;6.65;4.78;;;;;;;;;;5028938;28;20054;-78
2022/04/24 09:33:09;;;;;;;13.55;4.90;;;;;;;;;;5024568;28;20580;-79
2022/04/24 09:35:36;;;;;;;7.57;4.85;;;;;;;;;;5018842;28;20054;-79
2022/04/24 09:38:06;;;;;;;8.02;5.07;;;;;;;;;;5022672;28;20602;-78
2022/04/24 09:40:46;;;;;;;7.57;4.65;;;;;;;;;;5023207;28;20050;-77
2022/04/24 09:43:16;;;;;;;8.43;4.70;;;;;;;;;;5024303;28;20061;-79
2022/04/24 09:45:46;;;;;;;12.15;4.85;;;;;;;;;;5013453;28;20089;-79
2022/04/24 09:48:15;;;;;;;6.40;4.72;;;;;;;;;;5026746;28;20500;-79
2022/04/24 09:50:42;;;;;;;8.48;5.13;;;;;;;;;;5027869;28;20065;-79
2022/04/24 09:53:12;;;;;;;8.00;5.10;;;;;;;;;;5022592;28;20109;-78
2022/04/24 09:55:39;;;;;;;7.60;5.50;;;;;;;;;;5026435;28;20803;-79
2022/04/24 09:58:07;;;;;;;8.25;5.22;;;;;;;;;;5024700;28;20148;-79
2022/04/24 10:00:34;;;;;;;10.02;5.00;;;;;;;;;;5022957;28;20990;-79
2022/04/24 10:03:02;;;;;;;8.77;5.13;;;;;;;;;;5022747;28;20509;-79
2022/04/24 10:05:29;;;;;;;7.45;5.53;;;;;;;;;;5025850;28;20085;-79
2022/04/24 10:07:56;;;;;;;7.90;5.43;;;;;;;;;;5040091;28;20089;-78
2022/04/24 10:10:23;;;;;;;11.73;5.43;;;;;;;;;;5022493;28;20190;-78
2022/04/24 10:12:50;;;;;;;7.43;5.20;;;;;;;;;;5024566;28;20057;-79
2022/04/24 10:15:18;;;;;;;8.57;4.88;;;;;;;;;;5023734;28;20093;-78
2022/04/24 10:18:04;;;;;;;6.47;4.78;;;;;;;;;;5021734;28;20062;-79
2022/04/24 10:20:46;;;;;;;7.35;4.95;;;;;;;;;;5024732;28;20611;-78
2022/04/24 10:23:12;;;;;;;7.93;4.40;;;;;;;;;;5022941;28;20567;-78
2022/04/24 10:25:40;;;;;;;7.55;4.80;;;;;;;;;;5021738;28;20064;-78
2022/04/24 10:28:10;;;;;;;8.75;4.70;;;;;;;;;;5019925;28;20141;-79
2022/04/24 10:30:37;;;;;;;;;;;;;;;;;;5018731;28;20784;-78
2022/04/24 10:33:23;;;;;;;6.90;4.80;;;;;;;;;;5033377;28;46901;-79
2022/04/24 10:35:51;;;;;;;7.18;4.25;;;;;;;;;;5034449;28;20057;-78
2022/04/24 10:38:20;;;;;;;6.57;4.50;;;;;;;;;;5048714;28;20168;-78
2022/04/24 10:40:56;;;;;;;7.13;4.55;;;;;;;;;;5023288;28;20141;-78
2022/04/24 10:43:23;;;;;;;7.20;4.57;;;;;;;;;;5017656;28;20132;-77
2022/04/24 10:45:50;;;;;;;7.40;4.78;;;;;;;;;;5020448;28;20073;-78
2022/04/24 10:48:17;;;;;;;9.50;5.07;;;;;;;;;;5017619;28;20465;-77
2022/04/24 10:50:47;;;;;;;7.82;4.45;;;;;;;;;;5022034;28;20089;-78
2022/04/24 10:53:14;;;;;;;7.82;4.40;;;;;;;;;;5006854;28;20054;-78
2022/04/24 10:55:42;;;;;;;7.47;4.75;;;;;;;;;;5016579;28;20054;-78
2022/04/24 10:58:24;;;;;;;7.43;5.20;;;;;;;;;;5021658;28;20104;-78
2022/04/24 11:00:50;;;;;;;10.32;5.55;;;;;;;;;;5024622;28;20136;-78
2022/04/24 11:03:18;;;;;;;6.50;4.25;;;;;;;;;;5054507;28;20523;-79
2022/04/24 11:05:45;;;;;;;6.28;4.68;;;;;;;;;;5017451;28;20054;-79
2022/04/24 11:08:20;;;;;;;7.97;4.60;;;;;;;;;;5023169;28;20108;-78
2022/04/24 11:10:47;;;;;;;8.68;4.60;;;;;;;;;;5023562;28;20064;-78
2022/04/24 11:13:16;;;;;;;5.88;3.97;;;;;;;;;;5024369;28;20125;-78
2022/04/24 11:15:47;;;;;;;7.45;4.75;;;;;;;;;;5017362;28;20058;-78
2022/04/24 11:18:20;;;;;;;10.88;4.90;;;;;;;;;;5025381;28;20080;-78
2022/04/24 11:20:55;;;;;;;7.47;4.40;;;;;;;;;;5022857;28;20050;-77
2022/04/24 11:23:24;;;;;;;8.15;4.30;;;;;;;;;;5028507;28;20567;-78
2022/04/24 11:25:55;;;;;;;6.28;4.35;;;;;;;;;;5022226;28;20152;-77
2022/04/24 11:28:32;;;;;;;8.38;4.55;;;;;;;;;;5019248;28;20058;-79
2022/04/24 11:31:06;;;;;;;7.93;4.90;;;;;;;;;;5024430;28;20126;-79
2022/04/24 11:33:33;;;;;;;6.05;4.10;;;;;;;;;;5056105;28;20068;-77
2022/04/24 11:36:04;;;;;;;7.93;4.53;;;;;;;;;;5018151;28;20490;-77
2022/04/24 11:38:31;;;;;;;8.50;4.55;;;;;;;;;;5024321;28;20050;-78
2022/04/24 11:41:03;;;;;;;6.85;5.00;;;;;;;;;;5020963;28;20141;-77
2022/04/24 11:43:30;;;;;;;6.57;4.28;;;;;;;;;;5016474;28;20107;-79
2022/04/24 11:51:30;;;;;;;7.88;4.82;;;;;;;;;;5023907;28;20062;-78
2022/04/24 11:54:06;;;;;;;7.97;4.38;;;;;;;;;;5018822;28;20080;-78
2022/04/24 11:56:33;;;;;;;6.97;4.57;;;;;;;;;;5020218;28;20050;-78
2022/04/24 11:59:16;;;;;;;10.77;5.20;;;;;;;;;;5019402;28;20050;-78
2022/04/24 12:01:45;;;;;;;9.57;4.60;;;;;;;;;;5024484;28;20524;-77
2022/04/24 12:04:16;;;;;;;9.70;5.10;;;;;;;;;;5025971;28;20509;-78
2022/04/24 12:06:43;;;;;;;8.63;4.57;;;;;;;;;;5023890;28;20053;-79
2022/04/24 12:09:18;;;;;;;8.25;4.20;;;;;;;;;;5024974;28;20524;-78
2022/04/24 12:12:06;;;;;;;9.75;4.60;;;;;;;;;;5028450;28;22143;-78
2022/04/24 12:14:38;;;;;;;9.95;4.53;;;;;;;;;;5027620;28;20060;-79
2022/04/24 12:17:08;;;;;;;8.00;4.25;;;;;;;;;;5028062;28;20045;-79
2022/04/24 12:19:39;;;;;;;10.73;4.57;;;;;;;;;;5057224;28;20108;-78
2022/04/24 12:22:10;;;;;;;5.78;3.88;;;;;;;;;;5026897;28;20058;-77
2022/04/24 12:24:44;;;;;;;7.30;3.83;;;;;;;;;;5021127;28;20108;-78
2022/04/24 12:27:14;;;;;;;5.97;3.70;;;;;;;;;;5023078;28;20570;-79
2022/04/24 12:29:41;;;;;;;9.00;3.78;;;;;;;;;;5023201;28;20050;-78
2022/04/24 12:32:12;;;;;;;6.45;4.07;;;;;;;;;;5023015;28;20528;-78
2022/04/24 12:34:39;;;;;;;6.63;3.67;;;;;;;;;;5017561;28;20168;-80
2022/04/24 12:37:06;;;;;;;5.97;4.03;;;;;;;;;;5015286;28;20047;-78
2022/04/24 12:39:33;;;;;;;9.13;3.70;;;;;;;;;;5028091;28;20052;-79
2022/04/24 12:42:17;;;;;;;8.63;3.78;;;;;;;;;;5024472;28;20082;-78
2022/04/24 12:44:44;;;;;;;5.93;3.53;;;;;;;;;;5017810;28;20596;-79
2022/04/24 12:47:11;;;;;;;6.43;3.20;;;;;;;;;;5033461;22;20060;-77
2022/04/24 12:49:40;;;;;;;9.23;2.97;;;;;;;;;;5039565;28;20054;-79
2022/04/24 12:52:09;;;;;;;6.85;3.53;;;;;;;;;;5027544;28;20050;-78
2022/04/24 12:54:36;;;;;;;6.35;3.20;;;;;;;;;;5026421;28;20054;-78
2022/04/24 12:57:06;;;;;;;8.35;3.20;;;;;;;;;;5033243;28;20535;-77
2022/04/24 12:59:34;;;;;;;6.15;3.00;;;;;;;;;;5027163;28;20056;-77
2022/04/24 13:02:03;;;;;;;6.32;2.70;;;;;;;;;;5023874;28;20531;-78
2022/04/24 13:04:31;;;;;;;5.72;3.00;;;;;;;;;;5011471;28;20065;-78
2022/04/24 13:06:58;;;;;;;6.95;2.88;;;;;;;;;;5014382;28;20498;-78
2022/04/24 13:09:26;;;;;;;6.72;3.00;;;;;;;;;;5027680;28;20045;-78
2022/04/24 13:11:54;;;;;;;6.32;2.97;;;;;;;;;;5024659;28;20050;-78
2022/04/24 13:14:22;;;;;;;7.60;3.65;;;;;;;;;;5027265;28;20600;-79
2022/04/24 13:19:34;;;;;;;5.22;3.00;;;;;;;;;;5017803;28;20140;-78
2022/04/24 13:22:02;;;;;;;6.07;3.20;;;;;;;;;;5019333;28;20058;-77
2022/04/24 13:24:29;;;;;;;4.57;3.00;;;;;;;;;;5021358;28;20053;-78
2022/04/24 13:26:56;;;;;;;5.78;3.17;;;;;;;;;;5021826;28;20078;-78
2022/04/24 13:29:22;;;;;;;7.05;3.30;;;;;;;;;;5037212;28;20133;-77
2022/04/24 13:31:49;;;;;;;6.95;3.20;;;;;;;;;;5024151;28;20061;-79
2022/04/24 13:34:16;;;;;;;4.65;3.00;;;;;;;;;;5025142;28;20093;-78
2022/04/24 13:36:44;;;;;;;7.95;3.38;;;;;;;;;;5044484;28;20100;-78
2022/04/24 13:39:11;;;;;;;5.13;2.95;;;;;;;;;;5014614;28;20057;-77
2022/04/24 13:41:38;;;;;;;5.32;2.90;;;;;;;;;;5021349;28;20054;-79
2022/04/24 13:44:05;;;;;;;8.85;3.00;;;;;;;;;;5025188;28;20145;-78
2022/04/24 13:46:32;;;;;;;6.25;2.83;;;;;;;;;;5018125;28;20140;-76
2022/04/24 13:48:58;;;;;;;7.22;2.90;;;;;;;;;;5017391;28;20062;-78
2022/04/24 13:51:25;;;;;;;9.23;3.33;;;;;;;;;;5016090;28;20094;-77
2022/04/24 13:53:52;;;;;;;5.72;2.65;;;;;;;;;;5015946;28;20150;-78
2022/04/24 13:56:19;;;;;;;6.13;2.97;;;;;;;;;;5037447;28;20069;-77
2022/04/24 13:58:46;;;;;;;4.93;2.88;;;;;;;;;;5024777;28;20914;-77
2022/04/24 14:01:13;;;;;;;5.15;2.75;;;;;;;;;;5026209;28;21821;-76
2022/04/24 14:03:40;;;;;;;6.82;3.28;;;;;;;;;;5027932;28;20054;-79
2022/04/24 14:06:07;;;;;;;6.28;2.80;;;;;;;;;;5017226;28;20504;-78
2022/04/24 14:08:33;;;;;;;5.40;3.00;;;;;;;;;;5022055;28;20514;-78
2022/04/24 14:11:00;;;;;;;6.68;3.00;;;;;;;;;;5020267;28;20531;-77
2022/04/24 14:13:27;;;;;;;6.40;2.65;;;;;;;;;;5032293;28;20060;-77
2022/04/24 14:15:54;;;;;;;6.10;2.58;;;;;;;;;;5021582;28;20125;-77
2022/04/24 14:18:20;;;;;;;5.25;2.40;;;;;;;;;;5013264;28;20184;-78
2022/04/24 14:20:50;;;;;;;6.03;2.80;;;;;;;;;;5039390;28;20058;-78
2022/04/24 14:23:20;;;;;;;4.47;2.30;;;;;;;;;;5040131;28;20061;-78
2022/04/24 14:25:46;;;;;;;4.45;2.45;;;;;;;;;;5039752;28;20050;-78
2022/04/24 14:28:13;;;;;;;5.55;2.50;;;;;;;;;;5022993;28;20109;-78
2022/04/24 14:30:41;;;;;;;4.45;2.38;;;;;;;;;;5025777;28;20050;-78
2022/04/24 14:33:11;;;;;;;5.35;2.65;;;;;;;;;;5019635;28;20492;-77
2022/04/24 14:35:41;;;;;;;4.03;2.25;;;;;;;;;;5010014;28;20156;-77
2022/04/24 14:38:08;;;;;;;5.63;2.38;;;;;;;;;;5029633;28;20054;-78
2022/04/24 14:40:37;;;;;;;6.72;2.35;;;;;;;;;;5032166;28;20556;-77
2022/04/24 14:43:04;;;;;;;6.35;2.28;;;;;;;;;;5023639;28;20061;-77
2022/04/24 14:56:32;;;;;;;4.93;1.98;;;;;;;;;;5020216;28;20089;-78
2022/04/24 14:58:58;;;;;;;5.72;2.25;;;;;;;;;;5020186;28;20136;-77
2022/04/24 15:01:26;;;;;;;5.28;2.30;;;;;;;;;;5032294;28;20144;-77